sensor_id;sensor_type;location;lat;lon;timestamp;P1;durP1;ratioP1;P2;durP2;ratioP2
15693;SDS011;7947;48.834;9.132;2022-07-23T00:00:57;4.03;;;3.55;;
15693;SDS011;7947;48.834;9.132;2022-07-23T00:04:02;11.15;;;3.80;;
15693;SDS011;7947;48.834;9.132;2022-07-23T00:07:07;4.35;;;3.58;;
15693;SDS011;7947;48.834;9.132;2022-07-23T00:10:14;4.53;;;3.50;;
15693;SDS011;7947;48.834;9.132;2022-07-23T00:13:19;4.55;;;3.90;;
15693;SDS011;7947;48.834;9.132;2022-07-23T00:16:24;4.65;;;3.22;;
15693;SDS011;7947;48.834;9.132;2022-07-23T00:19:29;5.97;;;3.40;;
15693;SDS011;7947;48.834;9.132;2022-07-23T00:22:35;4.22;;;3.83;;
15693;SDS011;7947;48.834;9.132;2022-07-23T00:25:41;4.65;;;3.53;;
15693;SDS011;7947;48.834;9.132;2022-07-23T00:28:47;5.57;;;3.92;;
15693;SDS011;7947;48.834;9.132;2022-07-23T00:31:52;4.55;;;3.80;;
15693;SDS011;7947;48.834;9.132;2022-07-23T00:34:58;4.35;;;3.47;;
15693;SDS011;7947;48.834;9.132;2022-07-23T00:38:07;3.58;;;3.28;;
15693;SDS011;7947;48.834;9.132;2022-07-23T00:41:14;5.22;;;3.90;;
15693;SDS011;7947;48.834;9.132;2022-07-23T00:44:21;3.72;;;3.35;;
15693;SDS011;7947;48.834;9.132;2022-07-23T00:47:27;4.32;;;3.22;;
15693;SDS011;7947;48.834;9.132;2022-07-23T00:50:33;5.00;;;3.40;;
15693;SDS011;7947;48.834;9.132;2022-07-23T00:53:38;4.40;;;3.42;;
15693;SDS011;7947;48.834;9.132;2022-07-23T00:56:46;4.25;;;3.83;;
15693;SDS011;7947;48.834;9.132;2022-07-23T00:59:52;4.63;;;3.80;;
15693;SDS011;7947;48.834;9.132;2022-07-23T01:02:54;3.78;;;3.45;;
15693;SDS011;7947;48.834;9.132;2022-07-23T01:05:57;3.53;;;3.22;;
15693;SDS011;7947;48.834;9.132;2022-07-23T01:09:01;4.18;;;3.78;;
15693;SDS011;7947;48.834;9.132;2022-07-23T01:12:07;6.20;;;4.15;;
15693;SDS011;7947;48.834;9.132;2022-07-23T01:15:10;3.63;;;3.33;;
15693;SDS011;7947;48.834;9.132;2022-07-23T01:18:14;3.83;;;3.53;;
15693;SDS011;7947;48.834;9.132;2022-07-23T01:21:17;3.63;;;3.33;;
15693;SDS011;7947;48.834;9.132;2022-07-23T01:24:22;4.15;;;3.83;;
15693;SDS011;7947;48.834;9.132;2022-07-23T01:27:24;4.35;;;3.72;;
15693;SDS011;7947;48.834;9.132;2022-07-23T01:30:27;4.10;;;3.70;;
15693;SDS011;7947;48.834;9.132;2022-07-23T01:33:30;6.32;;;4.10;;
15693;SDS011;7947;48.834;9.132;2022-07-23T01:36:33;4.63;;;3.63;;
15693;SDS011;7947;48.834;9.132;2022-07-23T01:39:37;4.72;;;3.80;;
15693;SDS011;7947;48.834;9.132;2022-07-23T01:42:40;6.75;;;3.65;;
15693;SDS011;7947;48.834;9.132;2022-07-23T01:45:43;4.28;;;3.65;;
15693;SDS011;7947;48.834;9.132;2022-07-23T01:48:46;4.03;;;3.40;;
15693;SDS011;7947;48.834;9.132;2022-07-23T01:51:49;4.03;;;3.00;;
15693;SDS011;7947;48.834;9.132;2022-07-23T01:55:07;5.03;;;3.45;;
15693;SDS011;7947;48.834;9.132;2022-07-23T01:58:18;4.18;;;3.78;;
15693;SDS011;7947;48.834;9.132;2022-07-23T02:01:21;4.05;;;3.45;;
15693;SDS011;7947;48.834;9.132;2022-07-23T02:04:24;3.95;;;3.50;;
15693;SDS011;7947;48.834;9.132;2022-07-23T02:07:27;4.97;;;4.05;;
15693;SDS011;7947;48.834;9.132;2022-07-23T02:10:35;4.35;;;3.95;;
15693;SDS011;7947;48.834;9.132;2022-07-23T02:13:38;5.78;;;4.00;;
15693;SDS011;7947;48.834;9.132;2022-07-23T02:16:40;3.97;;;3.67;;
15693;SDS011;7947;48.834;9.132;2022-07-23T02:19:43;3.95;;;3.55;;
15693;SDS011;7947;48.834;9.132;2022-07-23T02:22:46;4.47;;;3.55;;
15693;SDS011;7947;48.834;9.132;2022-07-23T02:25:50;3.90;;;3.33;;
15693;SDS011;7947;48.834;9.132;2022-07-23T02:28:53;4.20;;;3.80;;
15693;SDS011;7947;48.834;9.132;2022-07-23T02:31:55;4.60;;;3.83;;
15693;SDS011;7947;48.834;9.132;2022-07-23T02:34:58;4.38;;;3.97;;
15693;SDS011;7947;48.834;9.132;2022-07-23T02:38:01;5.22;;;3.92;;
15693;SDS011;7947;48.834;9.132;2022-07-23T02:41:06;4.00;;;3.60;;
15693;SDS011;7947;48.834;9.132;2022-07-23T02:44:08;4.00;;;3.70;;
15693;SDS011;7947;48.834;9.132;2022-07-23T02:47:11;5.05;;;4.38;;
15693;SDS011;7947;48.834;9.132;2022-07-23T02:50:14;4.30;;;3.90;;
15693;SDS011;7947;48.834;9.132;2022-07-23T02:53:17;5.15;;;4.05;;
15693;SDS011;7947;48.834;9.132;2022-07-23T02:56:22;4.03;;;3.65;;
15693;SDS011;7947;48.834;9.132;2022-07-23T02:59:25;4.40;;;4.00;;
15693;SDS011;7947;48.834;9.132;2022-07-23T03:02:28;5.25;;;3.95;;
15693;SDS011;7947;48.834;9.132;2022-07-23T03:05:31;5.65;;;4.55;;
15693;SDS011;7947;48.834;9.132;2022-07-23T03:08:34;5.20;;;4.18;;
15693;SDS011;7947;48.834;9.132;2022-07-23T03:11:38;4.50;;;4.10;;
15693;SDS011;7947;48.834;9.132;2022-07-23T03:14:41;4.75;;;4.32;;
15693;SDS011;7947;48.834;9.132;2022-07-23T03:17:44;4.55;;;4.05;;
15693;SDS011;7947;48.834;9.132;2022-07-23T03:20:47;4.70;;;4.25;;
15693;SDS011;7947;48.834;9.132;2022-07-23T03:23:50;5.03;;;4.53;;
15693;SDS011;7947;48.834;9.132;2022-07-23T03:26:54;4.75;;;4.30;;
15693;SDS011;7947;48.834;9.132;2022-07-23T03:29:57;4.90;;;4.30;;
15693;SDS011;7947;48.834;9.132;2022-07-23T03:33:01;5.45;;;4.10;;
15693;SDS011;7947;48.834;9.132;2022-07-23T03:36:04;4.72;;;4.32;;
15693;SDS011;7947;48.834;9.132;2022-07-23T03:39:10;4.70;;;3.92;;
15693;SDS011;7947;48.834;9.132;2022-07-23T03:42:16;4.38;;;3.92;;
15693;SDS011;7947;48.834;9.132;2022-07-23T03:45:18;6.25;;;4.35;;
15693;SDS011;7947;48.834;9.132;2022-07-23T03:48:21;4.72;;;4.32;;
15693;SDS011;7947;48.834;9.132;2022-07-23T03:51:24;4.45;;;4.05;;
15693;SDS011;7947;48.834;9.132;2022-07-23T03:54:27;4.55;;;4.07;;
15693;SDS011;7947;48.834;9.132;2022-07-23T03:57:31;4.57;;;4.18;;
15693;SDS011;7947;48.834;9.132;2022-07-23T04:00:34;4.82;;;4.35;;
15693;SDS011;7947;48.834;9.132;2022-07-23T04:03:37;5.55;;;4.32;;
15693;SDS011;7947;48.834;9.132;2022-07-23T04:06:40;5.03;;;4.30;;
15693;SDS011;7947;48.834;9.132;2022-07-23T04:09:43;5.05;;;4.25;;
15693;SDS011;7947;48.834;9.132;2022-07-23T04:12:48;6.28;;;4.32;;
15693;SDS011;7947;48.834;9.132;2022-07-23T04:15:51;6.07;;;4.18;;
15693;SDS011;7947;48.834;9.132;2022-07-23T04:18:53;4.50;;;4.10;;
15693;SDS011;7947;48.834;9.132;2022-07-23T04:21:56;5.10;;;4.60;;
15693;SDS011;7947;48.834;9.132;2022-07-23T04:24:59;4.97;;;4.47;;
15693;SDS011;7947;48.834;9.132;2022-07-23T04:28:04;5.28;;;4.65;;
15693;SDS011;7947;48.834;9.132;2022-07-23T04:31:07;5.28;;;4.63;;
15693;SDS011;7947;48.834;9.132;2022-07-23T04:34:10;4.25;;;3.85;;
15693;SDS011;7947;48.834;9.132;2022-07-23T04:37:13;4.60;;;4.20;;
15693;SDS011;7947;48.834;9.132;2022-07-23T04:40:16;4.72;;;4.32;;
15693;SDS011;7947;48.834;9.132;2022-07-23T04:43:20;5.88;;;4.32;;
15693;SDS011;7947;48.834;9.132;2022-07-23T04:46:23;6.30;;;4.03;;
15693;SDS011;7947;48.834;9.132;2022-07-23T04:49:26;5.63;;;4.95;;
15693;SDS011;7947;48.834;9.132;2022-07-23T04:52:28;5.10;;;4.70;;
15693;SDS011;7947;48.834;9.132;2022-07-23T04:55:31;5.18;;;4.43;;
15693;SDS011;7947;48.834;9.132;2022-07-23T04:58:36;5.78;;;4.03;;
15693;SDS011;7947;48.834;9.132;2022-07-23T05:01:38;5.60;;;4.22;;
15693;SDS011;7947;48.834;9.132;2022-07-23T05:04:43;4.30;;;3.90;;
15693;SDS011;7947;48.834;9.132;2022-07-23T05:07:46;5.38;;;4.80;;
15693;SDS011;7947;48.834;9.132;2022-07-23T05:10:48;4.60;;;4.20;;
15693;SDS011;7947;48.834;9.132;2022-07-23T05:13:53;4.63;;;4.22;;
15693;SDS011;7947;48.834;9.132;2022-07-23T05:16:56;4.63;;;3.95;;
15693;SDS011;7947;48.834;9.132;2022-07-23T05:19:58;5.10;;;3.78;;
15693;SDS011;7947;48.834;9.132;2022-07-23T05:23:01;4.72;;;4.32;;
15693;SDS011;7947;48.834;9.132;2022-07-23T05:26:04;4.15;;;3.75;;
15693;SDS011;7947;48.834;9.132;2022-07-23T05:29:09;4.05;;;3.65;;
15693;SDS011;7947;48.834;9.132;2022-07-23T05:32:11;4.32;;;3.92;;
15693;SDS011;7947;48.834;9.132;2022-07-23T05:35:14;6.38;;;4.53;;
15693;SDS011;7947;48.834;9.132;2022-07-23T05:38:17;4.22;;;3.92;;
15693;SDS011;7947;48.834;9.132;2022-07-23T05:41:20;5.07;;;4.53;;
15693;SDS011;7947;48.834;9.132;2022-07-23T05:44:24;4.72;;;4.30;;
15693;SDS011;7947;48.834;9.132;2022-07-23T05:47:41;5.25;;;4.57;;
15693;SDS011;7947;48.834;9.132;2022-07-23T05:50:45;6.20;;;4.20;;
15693;SDS011;7947;48.834;9.132;2022-07-23T05:53:49;4.45;;;4.05;;
15693;SDS011;7947;48.834;9.132;2022-07-23T05:56:52;4.90;;;4.35;;
15693;SDS011;7947;48.834;9.132;2022-07-23T05:59:57;5.65;;;4.53;;
15693;SDS011;7947;48.834;9.132;2022-07-23T06:03:00;5.18;;;4.20;;
15693;SDS011;7947;48.834;9.132;2022-07-23T06:06:03;5.20;;;4.47;;
15693;SDS011;7947;48.834;9.132;2022-07-23T06:09:06;4.70;;;4.30;;
15693;SDS011;7947;48.834;9.132;2022-07-23T06:12:08;6.25;;;4.78;;
15693;SDS011;7947;48.834;9.132;2022-07-23T06:15:13;4.35;;;4.00;;
15693;SDS011;7947;48.834;9.132;2022-07-23T06:18:15;6.05;;;5.00;;
15693;SDS011;7947;48.834;9.132;2022-07-23T06:21:18;5.65;;;4.45;;
15693;SDS011;7947;48.834;9.132;2022-07-23T06:24:41;6.82;;;5.15;;
15693;SDS011;7947;48.834;9.132;2022-07-23T06:27:44;5.13;;;4.10;;
15693;SDS011;7947;48.834;9.132;2022-07-23T06:30:48;4.57;;;3.88;;
15693;SDS011;7947;48.834;9.132;2022-07-23T06:33:50;4.57;;;4.10;;
15693;SDS011;7947;48.834;9.132;2022-07-23T06:36:53;4.55;;;4.15;;
15693;SDS011;7947;48.834;9.132;2022-07-23T06:39:56;4.68;;;4.28;;
15693;SDS011;7947;48.834;9.132;2022-07-23T06:42:59;5.38;;;4.05;;
15693;SDS011;7947;48.834;9.132;2022-07-23T06:46:03;5.07;;;4.55;;
15693;SDS011;7947;48.834;9.132;2022-07-23T06:49:06;5.38;;;4.88;;
15693;SDS011;7947;48.834;9.132;2022-07-23T06:52:09;7.43;;;4.60;;
15693;SDS011;7947;48.834;9.132;2022-07-23T06:55:12;4.80;;;4.30;;
15693;SDS011;7947;48.834;9.132;2022-07-23T06:58:15;5.28;;;4.60;;
15693;SDS011;7947;48.834;9.132;2022-07-23T07:01:21;6.75;;;5.25;;
15693;SDS011;7947;48.834;9.132;2022-07-23T07:04:24;7.20;;;5.22;;
15693;SDS011;7947;48.834;9.132;2022-07-23T07:07:27;7.93;;;4.70;;
15693;SDS011;7947;48.834;9.132;2022-07-23T07:10:29;5.65;;;5.10;;
15693;SDS011;7947;48.834;9.132;2022-07-23T07:13:32;5.60;;;4.60;;
15693;SDS011;7947;48.834;9.132;2022-07-23T07:16:36;6.28;;;4.97;;
15693;SDS011;7947;48.834;9.132;2022-07-23T07:19:39;5.88;;;5.18;;
15693;SDS011;7947;48.834;9.132;2022-07-23T07:22:42;6.47;;;4.43;;
15693;SDS011;7947;48.834;9.132;2022-07-23T07:25:44;5.65;;;4.47;;
15693;SDS011;7947;48.834;9.132;2022-07-23T07:28:47;6.28;;;4.95;;
15693;SDS011;7947;48.834;9.132;2022-07-23T07:31:51;5.72;;;5.05;;
15693;SDS011;7947;48.834;9.132;2022-07-23T07:34:54;7.18;;;5.38;;
15693;SDS011;7947;48.834;9.132;2022-07-23T07:37:57;6.10;;;5.45;;
15693;SDS011;7947;48.834;9.132;2022-07-23T07:41:00;5.47;;;4.97;;
15693;SDS011;7947;48.834;9.132;2022-07-23T07:44:03;5.93;;;5.13;;
15693;SDS011;7947;48.834;9.132;2022-07-23T07:47:10;5.25;;;4.85;;
15693;SDS011;7947;48.834;9.132;2022-07-23T07:50:15;5.13;;;4.65;;
15693;SDS011;7947;48.834;9.132;2022-07-23T07:53:19;8.68;;;5.20;;
15693;SDS011;7947;48.834;9.132;2022-07-23T07:56:22;5.72;;;5.22;;
15693;SDS011;7947;48.834;9.132;2022-07-23T07:59:25;5.97;;;5.47;;
15693;SDS011;7947;48.834;9.132;2022-07-23T08:02:40;7.82;;;5.90;;
15693;SDS011;7947;48.834;9.132;2022-07-23T08:05:44;6.22;;;5.25;;
15693;SDS011;7947;48.834;9.132;2022-07-23T08:08:47;7.20;;;5.53;;
15693;SDS011;7947;48.834;9.132;2022-07-23T08:11:49;9.30;;;5.80;;
15693;SDS011;7947;48.834;9.132;2022-07-23T08:14:53;7.05;;;5.35;;
15693;SDS011;7947;48.834;9.132;2022-07-23T08:17:57;6.72;;;5.50;;
15693;SDS011;7947;48.834;9.132;2022-07-23T08:21:00;7.93;;;5.55;;
15693;SDS011;7947;48.834;9.132;2022-07-23T08:24:03;5.47;;;4.68;;
15693;SDS011;7947;48.834;9.132;2022-07-23T08:27:06;6.22;;;4.82;;
15693;SDS011;7947;48.834;9.132;2022-07-23T08:30:10;5.63;;;4.25;;
15693;SDS011;7947;48.834;9.132;2022-07-23T08:33:15;5.43;;;4.80;;
15693;SDS011;7947;48.834;9.132;2022-07-23T08:36:34;5.57;;;4.63;;
15693;SDS011;7947;48.834;9.132;2022-07-23T08:39:38;5.93;;;4.70;;
15693;SDS011;7947;48.834;9.132;2022-07-23T08:42:40;4.97;;;4.47;;
15693;SDS011;7947;48.834;9.132;2022-07-23T08:45:44;6.40;;;4.47;;
15693;SDS011;7947;48.834;9.132;2022-07-23T08:48:50;5.32;;;4.82;;
15693;SDS011;7947;48.834;9.132;2022-07-23T08:51:53;4.88;;;4.47;;
15693;SDS011;7947;48.834;9.132;2022-07-23T08:54:56;5.28;;;4.07;;
15693;SDS011;7947;48.834;9.132;2022-07-23T08:58:00;4.28;;;3.90;;
15693;SDS011;7947;48.834;9.132;2022-07-23T09:01:03;30.42;;;6.70;;
15693;SDS011;7947;48.834;9.132;2022-07-23T09:04:07;4.35;;;3.80;;
15693;SDS011;7947;48.834;9.132;2022-07-23T09:07:10;4.50;;;3.88;;
15693;SDS011;7947;48.834;9.132;2022-07-23T09:10:13;6.60;;;4.13;;
15693;SDS011;7947;48.834;9.132;2022-07-23T09:16:37;5.40;;;4.18;;
15693;SDS011;7947;48.834;9.132;2022-07-23T09:19:42;4.20;;;3.80;;
15693;SDS011;7947;48.834;9.132;2022-07-23T09:22:46;5.80;;;4.07;;
15693;SDS011;7947;48.834;9.132;2022-07-23T09:25:50;5.10;;;4.20;;
15693;SDS011;7947;48.834;9.132;2022-07-23T09:28:54;5.57;;;4.43;;
15693;SDS011;7947;48.834;9.132;2022-07-23T09:31:59;7.13;;;3.83;;
15693;SDS011;7947;48.834;9.132;2022-07-23T09:35:13;5.22;;;3.80;;
15693;SDS011;7947;48.834;9.132;2022-07-23T09:38:28;4.43;;;3.90;;
15693;SDS011;7947;48.834;9.132;2022-07-23T09:41:34;5.75;;;3.97;;
15693;SDS011;7947;48.834;9.132;2022-07-23T09:44:40;4.07;;;3.72;;
15693;SDS011;7947;48.834;9.132;2022-07-23T09:47:44;4.65;;;3.90;;
15693;SDS011;7947;48.834;9.132;2022-07-23T09:50:50;4.10;;;3.80;;
15693;SDS011;7947;48.834;9.132;2022-07-23T09:53:53;6.55;;;4.65;;
15693;SDS011;7947;48.834;9.132;2022-07-23T09:56:56;6.30;;;4.55;;
15693;SDS011;7947;48.834;9.132;2022-07-23T10:00:01;4.47;;;3.97;;
15693;SDS011;7947;48.834;9.132;2022-07-23T10:03:07;4.28;;;3.88;;
15693;SDS011;7947;48.834;9.132;2022-07-23T10:06:13;4.28;;;3.85;;
15693;SDS011;7947;48.834;9.132;2022-07-23T10:09:16;5.50;;;3.90;;
15693;SDS011;7947;48.834;9.132;2022-07-23T10:12:25;5.55;;;3.72;;
15693;SDS011;7947;48.834;9.132;2022-07-23T10:15:36;4.28;;;3.88;;
15693;SDS011;7947;48.834;9.132;2022-07-23T10:18:42;4.68;;;3.80;;
15693;SDS011;7947;48.834;9.132;2022-07-23T10:21:48;5.38;;;4.20;;
15693;SDS011;7947;48.834;9.132;2022-07-23T10:24:59;5.30;;;3.95;;
15693;SDS011;7947;48.834;9.132;2022-07-23T10:28:21;4.32;;;3.92;;
15693;SDS011;7947;48.834;9.132;2022-07-23T10:31:37;5.43;;;4.15;;
15693;SDS011;7947;48.834;9.132;2022-07-23T10:35:03;5.63;;;3.78;;
15693;SDS011;7947;48.834;9.132;2022-07-23T10:38:13;5.22;;;4.07;;
15693;SDS011;7947;48.834;9.132;2022-07-23T10:41:30;4.20;;;3.80;;
15693;SDS011;7947;48.834;9.132;2022-07-23T10:44:37;5.30;;;4.15;;
15693;SDS011;7947;48.834;9.132;2022-07-23T10:47:43;7.68;;;4.10;;
15693;SDS011;7947;48.834;9.132;2022-07-23T10:51:07;3.92;;;3.63;;
15693;SDS011;7947;48.834;9.132;2022-07-23T10:54:21;3.83;;;3.53;;
15693;SDS011;7947;48.834;9.132;2022-07-23T10:57:25;4.53;;;4.13;;
15693;SDS011;7947;48.834;9.132;2022-07-23T11:00:29;7.03;;;3.88;;
15693;SDS011;7947;48.834;9.132;2022-07-23T11:03:34;8.68;;;4.63;;
15693;SDS011;7947;48.834;9.132;2022-07-23T11:13:44;4.35;;;3.95;;
15693;SDS011;7947;48.834;9.132;2022-07-23T11:16:48;4.78;;;4.20;;
15693;SDS011;7947;48.834;9.132;2022-07-23T11:23:17;5.57;;;4.30;;
15693;SDS011;7947;48.834;9.132;2022-07-23T11:29:47;4.53;;;4.13;;
15693;SDS011;7947;48.834;9.132;2022-07-23T11:32:54;4.70;;;4.30;;
15693;SDS011;7947;48.834;9.132;2022-07-23T11:36:20;4.75;;;4.30;;
15693;SDS011;7947;48.834;9.132;2022-07-23T11:39:24;4.97;;;4.25;;
15693;SDS011;7947;48.834;9.132;2022-07-23T11:42:29;5.35;;;4.10;;
15693;SDS011;7947;48.834;9.132;2022-07-23T11:45:33;4.72;;;4.30;;
15693;SDS011;7947;48.834;9.132;2022-07-23T11:48:38;5.07;;;4.57;;
15693;SDS011;7947;48.834;9.132;2022-07-23T11:51:41;4.93;;;4.50;;
15693;SDS011;7947;48.834;9.132;2022-07-23T11:54:46;4.60;;;4.20;;
15693;SDS011;7947;48.834;9.132;2022-07-23T11:57:52;5.65;;;4.57;;
15693;SDS011;7947;48.834;9.132;2022-07-23T12:00:56;5.18;;;4.68;;
15693;SDS011;7947;48.834;9.132;2022-07-23T12:03:59;4.88;;;4.47;;
15693;SDS011;7947;48.834;9.132;2022-07-23T12:07:02;5.28;;;4.63;;
15693;SDS011;7947;48.834;9.132;2022-07-23T12:10:08;4.35;;;3.95;;
15693;SDS011;7947;48.834;9.132;2022-07-23T12:13:15;4.90;;;4.40;;
15693;SDS011;7947;48.834;9.132;2022-07-23T12:16:19;4.65;;;3.88;;
15693;SDS011;7947;48.834;9.132;2022-07-23T12:19:23;5.55;;;4.78;;
15693;SDS011;7947;48.834;9.132;2022-07-23T12:22:33;7.05;;;4.60;;
15693;SDS011;7947;48.834;9.132;2022-07-23T12:25:38;5.85;;;4.40;;
15693;SDS011;7947;48.834;9.132;2022-07-23T12:28:44;5.03;;;4.55;;
15693;SDS011;7947;48.834;9.132;2022-07-23T12:31:54;5.82;;;4.70;;
15693;SDS011;7947;48.834;9.132;2022-07-23T12:35:04;5.97;;;4.57;;
15693;SDS011;7947;48.834;9.132;2022-07-23T12:38:09;5.38;;;4.82;;
15693;SDS011;7947;48.834;9.132;2022-07-23T12:41:13;4.88;;;4.47;;
15693;SDS011;7947;48.834;9.132;2022-07-23T12:44:17;5.20;;;4.70;;
15693;SDS011;7947;48.834;9.132;2022-07-23T12:47:20;6.63;;;4.72;;
15693;SDS011;7947;48.834;9.132;2022-07-23T12:50:33;7.00;;;4.63;;
15693;SDS011;7947;48.834;9.132;2022-07-23T12:53:41;5.32;;;4.35;;
15693;SDS011;7947;48.834;9.132;2022-07-23T12:56:45;4.45;;;4.05;;
15693;SDS011;7947;48.834;9.132;2022-07-23T12:59:52;4.53;;;4.13;;
15693;SDS011;7947;48.834;9.132;2022-07-23T13:03:19;5.13;;;4.63;;
15693;SDS011;7947;48.834;9.132;2022-07-23T13:06:26;4.93;;;4.38;;
15693;SDS011;7947;48.834;9.132;2022-07-23T13:09:33;5.32;;;4.88;;
15693;SDS011;7947;48.834;9.132;2022-07-23T13:12:58;4.88;;;4.35;;
15693;SDS011;7947;48.834;9.132;2022-07-23T13:16:06;5.18;;;4.68;;
15693;SDS011;7947;48.834;9.132;2022-07-23T13:19:12;4.97;;;4.57;;
15693;SDS011;7947;48.834;9.132;2022-07-23T13:22:19;5.55;;;5.00;;
15693;SDS011;7947;48.834;9.132;2022-07-23T13:25:24;5.40;;;4.90;;
15693;SDS011;7947;48.834;9.132;2022-07-23T13:28:31;5.63;;;4.70;;
15693;SDS011;7947;48.834;9.132;2022-07-23T13:31:37;5.68;;;5.13;;
15693;SDS011;7947;48.834;9.132;2022-07-23T13:34:43;5.20;;;4.70;;
15693;SDS011;7947;48.834;9.132;2022-07-23T13:37:51;8.48;;;4.72;;
15693;SDS011;7947;48.834;9.132;2022-07-23T13:40:56;6.53;;;5.93;;
15693;SDS011;7947;48.834;9.132;2022-07-23T13:44:01;5.85;;;5.25;;
15693;SDS011;7947;48.834;9.132;2022-07-23T13:47:11;6.50;;;5.93;;
15693;SDS011;7947;48.834;9.132;2022-07-23T13:50:19;6.65;;;5.40;;
15693;SDS011;7947;48.834;9.132;2022-07-23T13:53:24;7.70;;;5.45;;
15693;SDS011;7947;48.834;9.132;2022-07-23T13:56:31;6.22;;;5.00;;
15693;SDS011;7947;48.834;9.132;2022-07-23T13:59:36;5.05;;;4.57;;
15693;SDS011;7947;48.834;9.132;2022-07-23T14:02:43;6.60;;;5.60;;
15693;SDS011;7947;48.834;9.132;2022-07-23T14:05:50;6.28;;;5.38;;
15693;SDS011;7947;48.834;9.132;2022-07-23T14:08:57;5.65;;;5.07;;
15693;SDS011;7947;48.834;9.132;2022-07-23T14:12:03;6.40;;;5.47;;
15693;SDS011;7947;48.834;9.132;2022-07-23T14:15:08;8.38;;;5.13;;
15693;SDS011;7947;48.834;9.132;2022-07-23T14:18:16;6.65;;;4.90;;
15693;SDS011;7947;48.834;9.132;2022-07-23T14:21:22;6.22;;;4.95;;
15693;SDS011;7947;48.834;9.132;2022-07-23T14:24:29;6.00;;;5.50;;
15693;SDS011;7947;48.834;9.132;2022-07-23T14:27:36;7.40;;;5.00;;
15693;SDS011;7947;48.834;9.132;2022-07-23T14:30:42;5.20;;;4.75;;
15693;SDS011;7947;48.834;9.132;2022-07-23T14:33:49;4.78;;;4.38;;
15693;SDS011;7947;48.834;9.132;2022-07-23T14:36:55;5.43;;;4.57;;
15693;SDS011;7947;48.834;9.132;2022-07-23T14:40:00;4.90;;;4.38;;
15693;SDS011;7947;48.834;9.132;2022-07-23T14:43:05;5.43;;;4.93;;
15693;SDS011;7947;48.834;9.132;2022-07-23T14:46:13;5.40;;;4.90;;
15693;SDS011;7947;48.834;9.132;2022-07-23T14:49:21;4.93;;;4.40;;
15693;SDS011;7947;48.834;9.132;2022-07-23T14:52:29;6.05;;;4.75;;
15693;SDS011;7947;48.834;9.132;2022-07-23T14:55:34;4.70;;;4.30;;
15693;SDS011;7947;48.834;9.132;2022-07-23T14:58:40;6.20;;;4.82;;
15693;SDS011;7947;48.834;9.132;2022-07-23T15:01:46;9.90;;;4.85;;
15693;SDS011;7947;48.834;9.132;2022-07-23T15:04:52;6.03;;;4.85;;
15693;SDS011;7947;48.834;9.132;2022-07-23T15:08:00;5.75;;;5.15;;
15693;SDS011;7947;48.834;9.132;2022-07-23T15:11:10;11.20;;;5.00;;
15693;SDS011;7947;48.834;9.132;2022-07-23T15:14:16;5.38;;;4.88;;
15693;SDS011;7947;48.834;9.132;2022-07-23T15:17:32;8.27;;;5.50;;
15693;SDS011;7947;48.834;9.132;2022-07-23T15:20:39;5.20;;;4.70;;
15693;SDS011;7947;48.834;9.132;2022-07-23T15:23:44;5.57;;;5.07;;
15693;SDS011;7947;48.834;9.132;2022-07-23T15:26:52;5.65;;;5.07;;
15693;SDS011;7947;48.834;9.132;2022-07-23T15:29:57;4.95;;;4.55;;
15693;SDS011;7947;48.834;9.132;2022-07-23T15:33:02;4.97;;;4.57;;
15693;SDS011;7947;48.834;9.132;2022-07-23T15:36:13;5.10;;;4.70;;
15693;SDS011;7947;48.834;9.132;2022-07-23T15:39:18;5.28;;;4.78;;
15693;SDS011;7947;48.834;9.132;2022-07-23T15:42:26;5.90;;;5.30;;
15693;SDS011;7947;48.834;9.132;2022-07-23T15:45:31;5.63;;;4.80;;
15693;SDS011;7947;48.834;9.132;2022-07-23T15:48:37;5.85;;;5.35;;
15693;SDS011;7947;48.834;9.132;2022-07-23T15:51:46;6.72;;;4.95;;
15693;SDS011;7947;48.834;9.132;2022-07-23T15:54:51;11.18;;;4.78;;
15693;SDS011;7947;48.834;9.132;2022-07-23T15:57:58;6.13;;;5.20;;
15693;SDS011;7947;48.834;9.132;2022-07-23T16:01:03;5.78;;;5.28;;
15693;SDS011;7947;48.834;9.132;2022-07-23T16:04:09;6.82;;;4.90;;
15693;SDS011;7947;48.834;9.132;2022-07-23T16:07:17;7.10;;;5.03;;
15693;SDS011;7947;48.834;9.132;2022-07-23T16:10:22;7.22;;;5.20;;
15693;SDS011;7947;48.834;9.132;2022-07-23T16:13:27;5.70;;;5.20;;
15693;SDS011;7947;48.834;9.132;2022-07-23T16:16:33;5.68;;;5.20;;
15693;SDS011;7947;48.834;9.132;2022-07-23T16:19:40;5.10;;;4.57;;
15693;SDS011;7947;48.834;9.132;2022-07-23T16:22:47;7.68;;;5.65;;
15693;SDS011;7947;48.834;9.132;2022-07-23T16:25:52;6.70;;;6.03;;
15693;SDS011;7947;48.834;9.132;2022-07-23T16:28:58;5.85;;;5.35;;
15693;SDS011;7947;48.834;9.132;2022-07-23T16:32:03;6.03;;;5.43;;
15693;SDS011;7947;48.834;9.132;2022-07-23T16:35:09;5.70;;;5.20;;
15693;SDS011;7947;48.834;9.132;2022-07-23T16:38:16;6.38;;;5.78;;
15693;SDS011;7947;48.834;9.132;2022-07-23T16:41:24;6.10;;;5.65;;
15693;SDS011;7947;48.834;9.132;2022-07-23T16:44:29;7.00;;;6.22;;
15693;SDS011;7947;48.834;9.132;2022-07-23T16:47:34;5.88;;;5.38;;
15693;SDS011;7947;48.834;9.132;2022-07-23T16:50:40;5.90;;;5.40;;
15693;SDS011;7947;48.834;9.132;2022-07-23T16:53:46;6.43;;;5.82;;
15693;SDS011;7947;48.834;9.132;2022-07-23T16:56:52;7.05;;;5.88;;
15693;SDS011;7947;48.834;9.132;2022-07-23T16:59:58;6.30;;;5.70;;
15693;SDS011;7947;48.834;9.132;2022-07-23T17:03:04;6.05;;;5.45;;
15693;SDS011;7947;48.834;9.132;2022-07-23T17:06:09;7.45;;;6.35;;
15693;SDS011;7947;48.834;9.132;2022-07-23T17:09:16;7.22;;;6.53;;
15693;SDS011;7947;48.834;9.132;2022-07-23T17:12:22;6.85;;;6.00;;
15693;SDS011;7947;48.834;9.132;2022-07-23T17:15:29;7.30;;;6.30;;
15693;SDS011;7947;48.834;9.132;2022-07-23T17:18:37;6.72;;;6.20;;
15693;SDS011;7947;48.834;9.132;2022-07-23T17:21:42;6.78;;;6.07;;
15693;SDS011;7947;48.834;9.132;2022-07-23T17:24:49;7.90;;;7.00;;
15693;SDS011;7947;48.834;9.132;2022-07-23T17:27:54;9.50;;;6.53;;
15693;SDS011;7947;48.834;9.132;2022-07-23T17:30:59;7.35;;;6.65;;
15693;SDS011;7947;48.834;9.132;2022-07-23T17:34:04;7.22;;;6.50;;
15693;SDS011;7947;48.834;9.132;2022-07-23T17:37:10;7.40;;;6.70;;
15693;SDS011;7947;48.834;9.132;2022-07-23T17:40:17;7.28;;;6.68;;
15693;SDS011;7947;48.834;9.132;2022-07-23T17:43:23;7.13;;;6.53;;
15693;SDS011;7947;48.834;9.132;2022-07-23T17:46:28;7.00;;;6.40;;
15693;SDS011;7947;48.834;9.132;2022-07-23T17:49:33;7.15;;;6.55;;
15693;SDS011;7947;48.834;9.132;2022-07-23T17:52:44;7.18;;;6.57;;
15693;SDS011;7947;48.834;9.132;2022-07-23T17:55:52;8.07;;;6.97;;
15693;SDS011;7947;48.834;9.132;2022-07-23T17:58:58;10.60;;;6.50;;
15693;SDS011;7947;48.834;9.132;2022-07-23T18:02:04;6.70;;;6.10;;
15693;SDS011;7947;48.834;9.132;2022-07-23T18:05:11;7.00;;;6.30;;
15693;SDS011;7947;48.834;9.132;2022-07-23T18:08:16;7.57;;;6.72;;
15693;SDS011;7947;48.834;9.132;2022-07-23T18:11:23;7.32;;;6.72;;
15693;SDS011;7947;48.834;9.132;2022-07-23T18:14:28;7.60;;;6.90;;
15693;SDS011;7947;48.834;9.132;2022-07-23T18:17:34;7.97;;;7.18;;
15693;SDS011;7947;48.834;9.132;2022-07-23T18:20:39;9.05;;;7.00;;
15693;SDS011;7947;48.834;9.132;2022-07-23T18:23:45;8.00;;;6.95;;
15693;SDS011;7947;48.834;9.132;2022-07-23T18:26:51;6.90;;;6.28;;
15693;SDS011;7947;48.834;9.132;2022-07-23T18:29:56;9.63;;;7.50;;
15693;SDS011;7947;48.834;9.132;2022-07-23T18:33:01;7.50;;;6.80;;
15693;SDS011;7947;48.834;9.132;2022-07-23T18:36:08;9.18;;;6.78;;
15693;SDS011;7947;48.834;9.132;2022-07-23T18:39:15;7.53;;;6.82;;
15693;SDS011;7947;48.834;9.132;2022-07-23T18:42:23;7.07;;;6.38;;
15693;SDS011;7947;48.834;9.132;2022-07-23T18:45:30;7.97;;;7.18;;
15693;SDS011;7947;48.834;9.132;2022-07-23T18:48:35;7.55;;;6.47;;
15693;SDS011;7947;48.834;9.132;2022-07-23T18:51:42;9.27;;;7.35;;
15693;SDS011;7947;48.834;9.132;2022-07-23T18:54:47;7.78;;;7.07;;
15693;SDS011;7947;48.834;9.132;2022-07-23T18:57:54;8.95;;;6.93;;
15693;SDS011;7947;48.834;9.132;2022-07-23T19:01:04;7.35;;;6.45;;
15693;SDS011;7947;48.834;9.132;2022-07-23T19:04:10;7.65;;;6.85;;
15693;SDS011;7947;48.834;9.132;2022-07-23T19:07:15;8.02;;;6.50;;
15693;SDS011;7947;48.834;9.132;2022-07-23T19:10:21;7.88;;;6.75;;